Vamori, Arizona
Current Conditions -  °F | °C
As of 7:45 PM on Thursday 18 Dec 2014 (Local Time) from KRYN Reporting Station
Clear Clear  
Wind Chill: 48°   Ceiling: Unl
Heat Index: 48°   Visibility: 10mi
Dew Point: 46°   Wind: 0mph
Humidity: 93%   Direction: NA
Pressure: 30.17"   Gusts: NA
Location:  32.0925°N, 112.129°W
Report Text: KRYN 190245Z 00000KT 10SM CLR 09/08 A3017
Loading
Personal Weather Stations






























Interactive Weather Map New forecast layout! Learn more

10-Day Weather Forecast

Advertisements
Track Severe Weather on mobile